Time;durP1;ratioP1;P1;durP2;ratioP2;P2;SDS_P1;SDS_P2;PMS_P1;PMS_P2;Temp;Humidity;BMP_temperature;BMP_pressure;BME280_temperature;BME280_humidity;BME280_pressure;Samples;Min_cycle;Max_cycle;Signal;HPM_P1;HPM_P2
2023/09/12 00:04:50;;;;;;;4.03;2.70;;;;;;;;;;10304965;28;20030;-71
2023/09/12 00:09:50;;;;;;;6.88;2.88;;;;;;;;;;10308975;28;20026;-74
2023/09/12 00:14:51;;;;;;;7.07;2.63;;;;;;;;;;10310654;28;20058;-74
2023/09/12 00:19:52;;;;;;;6.85;2.92;;;;;;;;;;10301876;28;20023;-73
2023/09/12 00:24:52;;;;;;;4.73;3.00;;;;;;;;;;10307407;28;20028;-73
2023/09/12 00:29:52;;;;;;;10.90;3.35;;;;;;;;;;10307544;28;20499;-77
2023/09/12 00:34:53;;;;;;;7.95;3.45;;;;;;;;;;10303780;28;20022;-76
2023/09/12 00:39:53;;;;;;;5.97;3.88;;;;;;;;;;10302267;28;20030;-71
2023/09/12 00:44:55;;;;;;;5.45;3.58;;;;;;;;;;10301601;28;20542;-76
2023/09/12 00:49:56;;;;;;;9.63;4.25;;;;;;;;;;10304365;28;20164;-71
2023/09/12 00:54:59;;;;;;;5.85;3.40;;;;;;;;;;10315863;28;20061;-74
2023/09/12 01:00:01;;;;;;;7.65;3.42;;;;;;;;;;10302378;28;20212;-73
2023/09/12 01:05:06;;;;;;;7.35;3.28;;;;;;;;;;10306378;28;20019;-78
2023/09/12 01:10:07;;;;;;;4.45;3.17;;;;;;;;;;10293955;28;20030;-73
2023/09/12 01:15:13;;;;;;;5.82;3.15;;;;;;;;;;10305386;28;20034;-73
2023/09/12 01:20:21;;;;;;;5.75;3.22;;;;;;;;;;10312763;28;20045;-78
2023/09/12 01:25:42;;;;;;;5.78;2.90;;;;;;;;;;10311399;28;20034;-75
2023/09/12 01:30:45;;;;;;;4.15;2.60;;;;;;;;;;10308012;28;20018;-73
2023/09/12 01:35:46;;;;;;;4.10;2.63;;;;;;;;;;10314286;28;20082;-75
2023/09/12 01:40:50;;;;;;;5.63;2.85;;;;;;;;;;10313951;28;20093;-75
2023/09/12 01:45:55;;;;;;;4.70;2.65;;;;;;;;;;10310161;28;20068;-76
2023/09/12 01:50:56;;;;;;;5.97;3.28;;;;;;;;;;10305601;28;20113;-78
2023/09/12 01:55:57;;;;;;;7.03;3.22;;;;;;;;;;10304300;28;20053;-70
2023/09/12 02:01:02;;;;;;;6.75;2.92;;;;;;;;;;10305964;28;20028;-74
2023/09/12 02:06:03;;;;;;;4.15;3.10;;;;;;;;;;10329253;28;20029;-74
2023/09/12 02:11:03;;;;;;;8.90;3.20;;;;;;;;;;10303116;28;20506;-76
2023/09/12 02:16:04;;;;;;;8.95;3.38;;;;;;;;;;10306491;28;20065;-80
2023/09/12 02:21:06;;;;;;;7.22;3.20;;;;;;;;;;10307255;28;20050;-80
2023/09/12 02:26:06;;;;;;;7.80;3.97;;;;;;;;;;10317395;28;20018;-74
2023/09/12 02:31:11;;;;;;;8.67;3.37;;;;;;;;;;10308317;28;20042;-70
2023/09/12 02:36:11;;;;;;;8.30;3.20;;;;;;;;;;10326526;28;20061;-73
2023/09/12 02:41:12;;;;;;;10.70;4.05;;;;;;;;;;10323858;28;20056;-69
2023/09/12 02:46:13;;;;;;;7.32;3.42;;;;;;;;;;10344350;28;20096;-71
2023/09/12 02:51:14;;;;;;;7.70;3.42;;;;;;;;;;10317398;28;20053;-78
2023/09/12 02:56:14;;;;;;;10.07;6.22;;;;;;;;;;10312312;28;20029;-76
2023/09/12 03:01:25;;;;;;;10.18;5.13;;;;;;;;;;10321544;28;20498;-79
2023/09/12 03:06:25;;;;;;;11.10;4.90;;;;;;;;;;10310500;28;20074;-73
2023/09/12 03:11:27;;;;;;;9.40;4.30;;;;;;;;;;10303502;28;20145;-76
2023/09/12 03:16:29;;;;;;;8.98;5.22;;;;;;;;;;10299578;28;20785;-79
2023/09/12 03:21:30;;;;;;;10.30;4.78;;;;;;;;;;10290754;28;20038;-75
2023/09/12 03:26:31;;;;;;;9.35;4.95;;;;;;;;;;10322178;28;20033;-72
2023/09/12 03:31:33;;;;;;;16.10;5.22;;;;;;;;;;10322850;28;20018;-79
2023/09/12 03:36:35;;;;;;;9.07;4.60;;;;;;;;;;10323248;28;20534;-79
2023/09/12 03:41:36;;;;;;;11.40;4.28;;;;;;;;;;10306611;28;20026;-74
2023/09/12 03:46:36;;;;;;;8.75;4.47;;;;;;;;;;10303658;28;20051;-74
2023/09/12 03:51:43;;;;;;;7.10;4.70;;;;;;;;;;10307404;28;20031;-78
2023/09/12 03:56:44;;;;;;;4.57;3.07;;;;;;;;;;10307846;28;20090;-74
2023/09/12 04:01:45;;;;;;;6.37;3.30;;;;;;;;;;10302384;28;20030;-78
2023/09/12 04:06:54;;;;;;;5.63;3.42;;;;;;;;;;10296493;28;20416;-75
2023/09/12 04:11:59;;;;;;;7.07;3.20;;;;;;;;;;10308980;28;20572;-86
2023/09/12 04:17:08;;;;;;;4.60;3.03;;;;;;;;;;10313571;28;20018;-75
2023/09/12 04:22:09;;;;;;;6.30;3.40;;;;;;;;;;10306365;28;20026;-73
2023/09/12 04:27:09;;;;;;;10.55;3.55;;;;;;;;;;10300795;28;20026;-78
2023/09/12 04:32:10;;;;;;;7.43;3.97;;;;;;;;;;10300259;28;20019;-74
2023/09/12 04:37:13;;;;;;;5.90;4.00;;;;;;;;;;10311401;28;20057;-83
2023/09/12 04:42:14;;;;;;;6.88;4.38;;;;;;;;;;10302107;28;20041;-77
2023/09/12 04:47:14;;;;;;;5.97;4.73;;;;;;;;;;10302719;28;20452;-78
2023/09/12 04:52:14;;;;;;;8.18;4.32;;;;;;;;;;10300595;28;20684;-74
2023/09/12 04:57:25;;;;;;;8.68;4.63;;;;;;;;;;10304510;28;20488;-80
2023/09/12 05:02:27;;;;;;;8.50;3.13;;;;;;;;;;10312591;28;20518;-78
2023/09/12 05:07:28;;;;;;;6.30;4.40;;;;;;;;;;10324098;28;20026;-79
2023/09/12 05:12:30;;;;;;;8.93;3.60;;;;;;;;;;10315724;28;20026;-73
2023/09/12 05:17:39;;;;;;;12.52;3.67;;;;;;;;;;10344812;28;20049;-73
2023/09/12 05:22:46;;;;;;;5.28;3.58;;;;;;;;;;10366624;28;20030;-69
2023/09/12 05:27:47;;;;;;;14.07;4.60;;;;;;;;;;10333147;28;20038;-77
2023/09/12 05:32:47;;;;;;;9.75;3.10;;;;;;;;;;10328930;28;20425;-83
2023/09/12 05:37:49;;;;;;;5.13;3.95;;;;;;;;;;10322840;28;20098;-76
2023/09/12 05:42:49;;;;;;;10.95;3.60;;;;;;;;;;10317327;28;20031;-86
2023/09/12 05:47:50;;;;;;;5.10;3.33;;;;;;;;;;10310331;28;20054;-81
2023/09/12 05:52:51;;;;;;;8.43;3.40;;;;;;;;;;10323274;28;20086;-77
2023/09/12 05:57:55;;;;;;;9.55;3.45;;;;;;;;;;10296638;28;20027;-81
2023/09/12 06:02:59;;;;;;;4.97;2.90;;;;;;;;;;10300745;28;20090;-78
2023/09/12 06:08:01;;;;;;;11.98;3.38;;;;;;;;;;10317130;28;20430;-81
2023/09/12 06:13:02;;;;;;;4.57;2.75;;;;;;;;;;10310167;28;20031;-79
2023/09/12 06:18:03;;;;;;;4.20;2.53;;;;;;;;;;10304310;28;20068;-80
2023/09/12 06:23:03;;;;;;;5.63;2.93;;;;;;;;;;10317966;28;20542;-79
2023/09/12 06:28:03;;;;;;;8.97;2.70;;;;;;;;;;10319273;28;20284;-82
2023/09/12 06:33:04;;;;;;;12.45;2.95;;;;;;;;;;10323700;28;20102;-73
2023/09/12 06:38:10;;;;;;;3.85;2.30;;;;;;;;;;10322821;28;20034;-75
2023/09/12 06:43:12;;;;;;;7.13;2.27;;;;;;;;;;10320222;28;20038;-78
2023/09/12 06:48:12;;;;;;;7.60;2.55;;;;;;;;;;10302779;28;20308;-81
2023/09/12 06:53:19;;;;;;;6.77;2.40;;;;;;;;;;10311053;28;20030;-80
2023/09/12 06:58:19;;;;;;;5.95;2.80;;;;;;;;;;10340796;28;20034;-73
2023/09/12 07:03:20;;;;;;;5.20;2.38;;;;;;;;;;10322008;28;20568;-74
2023/09/12 07:08:21;;;;;;;7.40;2.38;;;;;;;;;;10305668;28;20712;-73
2023/09/12 07:13:22;;;;;;;7.38;2.17;;;;;;;;;;10306489;28;20029;-74
2023/09/12 07:18:22;;;;;;;10.05;2.25;;;;;;;;;;10317425;28;20030;-77
2023/09/12 07:23:24;;;;;;;5.18;2.33;;;;;;;;;;10309787;28;20547;-75
2023/09/12 07:28:27;;;;;;;4.53;1.75;;;;;;;;;;10305524;28;20065;-79
2023/09/12 07:33:28;;;;;;;5.72;2.35;;;;;;;;;;10301534;28;20030;-73
2023/09/12 07:38:30;;;;;;;9.52;2.72;;;;;;;;;;10317058;28;20031;-71
2023/09/12 07:43:31;;;;;;;9.98;2.97;;;;;;;;;;10332845;28;20041;-70
2023/09/12 07:48:32;;;;;;;11.38;3.60;;;;;;;;;;10331283;28;20038;-80
2023/09/12 07:53:32;;;;;;;7.10;2.90;;;;;;;;;;10295531;28;20801;-74
2023/09/12 07:58:33;;;;;;;11.63;3.05;;;;;;;;;;10300214;28;20033;-76
2023/09/12 08:03:35;;;;;;;12.02;4.13;;;;;;;;;;10301125;28;20015;-74
2023/09/12 08:08:35;;;;;;;7.78;2.42;;;;;;;;;;10313940;28;20034;-75
2023/09/12 08:13:35;;;;;;;6.55;2.55;;;;;;;;;;10301112;28;20402;-77
2023/09/12 08:18:35;;;;;;;8.23;2.67;;;;;;;;;;10302328;28;20460;-77
2023/09/12 08:23:36;;;;;;;13.18;3.00;;;;;;;;;;10301747;28;20034;-75
2023/09/12 08:28:36;;;;;;;10.33;2.77;;;;;;;;;;10308856;28;20195;-75
2023/09/12 08:33:36;;;;;;;6.30;2.22;;;;;;;;;;10313560;28;20180;-76
2023/09/12 08:38:37;;;;;;;9.23;1.87;;;;;;;;;;10293778;28;20045;-76
2023/09/12 08:43:40;;;;;;;2.88;1.60;;;;;;;;;;10315427;28;20022;-79
2023/09/12 08:48:42;;;;;;;6.32;2.20;;;;;;;;;;10319221;28;20054;-73
2023/09/12 08:53:42;;;;;;;6.38;2.08;;;;;;;;;;10312869;28;20483;-73
2023/09/12 08:58:43;;;;;;;5.03;2.40;;;;;;;;;;10306556;28;20033;-76
2023/09/12 09:03:45;;;;;;;4.20;2.65;;;;;;;;;;10322971;28;20027;-75
2023/09/12 09:08:45;;;;;;;8.73;1.80;;;;;;;;;;10310060;28;20096;-78
2023/09/12 09:13:47;;;;;;;7.53;2.03;;;;;;;;;;10326974;28;20030;-78
2023/09/12 09:19:10;;;;;;;4.30;1.88;;;;;;;;;;10318883;28;20324;-70
2023/09/12 09:24:11;;;;;;;6.35;2.05;;;;;;;;;;10314939;28;20379;-72
2023/09/12 09:29:14;;;;;;;5.85;2.67;;;;;;;;;;10341204;28;20041;-77
2023/09/12 09:34:15;;;;;;;8.73;2.25;;;;;;;;;;10324518;28;20065;-79
2023/09/12 09:39:17;;;;;;;7.00;2.28;;;;;;;;;;10313330;28;21074;-78
2023/09/12 09:44:18;;;;;;;6.40;1.98;;;;;;;;;;10327173;28;20034;-83
2023/09/12 09:49:21;;;;;;;8.07;1.73;;;;;;;;;;10309216;28;20060;-78
2023/09/12 09:54:23;;;;;;;5.68;1.60;;;;;;;;;;10314127;28;20082;-81
2023/09/12 09:59:25;;;;;;;5.05;1.30;;;;;;;;;;10322369;28;20093;-80
2023/09/12 10:04:29;;;;;;;5.03;1.27;;;;;;;;;;10314226;28;20077;-77
2023/09/12 10:09:30;;;;;;;6.83;1.60;;;;;;;;;;10315188;28;20034;-79
2023/09/12 10:14:31;;;;;;;5.65;1.63;;;;;;;;;;10329692;28;20070;-81
2023/09/12 10:19:38;;;;;;;5.93;1.60;;;;;;;;;;10321418;28;20091;-80
2023/09/12 10:24:39;;;;;;;6.45;1.60;;;;;;;;;;10310494;28;20093;-80
2023/09/12 10:29:39;;;;;;;4.72;1.40;;;;;;;;;;10328883;28;20508;-76
2023/09/12 10:34:44;;;;;;;4.25;1.52;;;;;;;;;;10329765;28;20026;-78
2023/09/12 10:39:45;;;;;;;8.98;1.85;;;;;;;;;;10313488;28;20034;-79
2023/09/12 10:44:46;;;;;;;3.97;1.83;;;;;;;;;;10322816;28;20102;-81
2023/09/12 10:49:52;;;;;;;4.68;1.40;;;;;;;;;;10328103;28;20055;-77
2023/09/12 10:55:19;;;;;;;5.00;1.80;;;;;;;;;;10323306;28;20042;-70
2023/09/12 11:05:58;;;;;;;7.13;1.33;;;;;;;;;;10315534;28;20113;-70
2023/09/12 11:11:21;;;;;;;8.20;1.60;;;;;;;;;;10332014;28;20046;-69
2023/09/12 11:16:22;;;;;;;4.47;1.30;;;;;;;;;;10339138;28;20022;-67
2023/09/12 11:21:32;;;;;;;5.65;1.88;;;;;;;;;;10335634;28;20026;-74
2023/09/12 11:26:32;;;;;;;5.28;1.88;;;;;;;;;;10328024;28;20627;-70
2023/09/12 11:37:31;;;;;;;4.80;2.28;;;;;;;;;;10327615;28;20034;-76
2023/09/12 11:42:54;;;;;;;4.72;2.60;;;;;;;;;;10317605;28;20062;-80
2023/09/12 11:47:56;;;;;;;4.10;2.17;;;;;;;;;;10331506;28;20668;-75
2023/09/12 11:53:07;;;;;;;6.32;2.08;;;;;;;;;;10330251;28;20132;-80
2023/09/12 11:58:16;;;;;;;5.45;1.67;;;;;;;;;;10324035;28;20068;-82
2023/09/12 12:03:17;;;;;;;;;;;;;;;;;;10332423;28;20025;-77
2023/09/12 12:08:19;;;;;;;8.18;2.65;;;;;;;;;;10333981;28;19910;-81
2023/09/12 12:13:21;;;;;;;9.63;2.53;;;;;;;;;;10320558;28;20109;-81
2023/09/12 12:18:32;;;;;;;7.13;2.70;;;;;;;;;;10328197;28;20049;-70
2023/09/12 12:23:33;;;;;;;5.97;2.40;;;;;;;;;;10325814;28;20037;-80
2023/09/12 12:28:36;;;;;;;3.58;2.05;;;;;;;;;;10339129;28;20090;-68
2023/09/12 12:33:39;;;;;;;11.40;2.78;;;;;;;;;;10319479;28;20078;-83
2023/09/12 12:38:39;;;;;;;4.10;2.42;;;;;;;;;;10316515;28;20473;-80
2023/09/12 12:43:41;;;;;;;11.97;3.07;;;;;;;;;;10349173;28;20014;-82
2023/09/12 12:49:04;;;;;;;10.38;3.50;;;;;;;;;;10312145;28;20416;-69
2023/09/12 12:54:05;;;;;;;5.30;2.25;;;;;;;;;;10336604;28;20042;-82
2023/09/12 12:59:38;;;;;;;6.85;2.47;;;;;;;;;;10315767;28;20062;-77
2023/09/12 13:04:38;;;;;;;5.63;2.97;;;;;;;;;;10311044;28;20034;-69
2023/09/12 13:09:38;;;;;;;8.35;2.70;;;;;;;;;;10327963;28;20117;-76
2023/09/12 13:15:07;;;;;;;6.47;2.97;;;;;;;;;;10329316;28;20022;-75
2023/09/12 13:20:08;;;;;;;9.10;3.58;;;;;;;;;;10336743;28;20030;-71
2023/09/12 13:25:09;;;;;;;7.85;3.00;;;;;;;;;;10319623;28;21290;-75
2023/09/12 13:30:15;;;;;;;6.47;2.50;;;;;;;;;;10330762;28;20060;-71
2023/09/12 13:35:16;;;;;;;7.63;2.50;;;;;;;;;;10324815;28;20280;-75
2023/09/12 13:40:17;;;;;;;10.73;3.10;;;;;;;;;;10299809;28;20534;-74
2023/09/12 13:45:18;;;;;;;6.53;2.80;;;;;;;;;;10312421;28;20049;-81
2023/09/12 13:50:19;;;;;;;9.32;3.00;;;;;;;;;;10311092;28;20906;-78
2023/09/12 13:55:19;;;;;;;8.10;2.67;;;;;;;;;;10310989;28;20223;-74
2023/09/12 14:00:20;;;;;;;10.32;3.35;;;;;;;;;;10305282;28;20735;-80
2023/09/12 14:05:21;;;;;;;11.60;3.40;;;;;;;;;;10295488;28;20087;-73
2023/09/12 14:10:21;;;;;;;7.15;3.08;;;;;;;;;;10313309;28;20327;-78
2023/09/12 14:15:21;;;;;;;9.35;2.75;;;;;;;;;;10322340;28;20056;-80
2023/09/12 14:20:51;;;;;;;8.18;3.72;;;;;;;;;;10309026;28;20106;-80
2023/09/12 14:25:51;;;;;;;8.65;2.72;;;;;;;;;;10312638;28;20502;-75
2023/09/12 14:30:53;;;;;;;2.88;2.50;;;;;;;;;;10310858;28;20041;-80
2023/09/12 14:35:54;;;;;;;10.98;3.28;;;;;;;;;;10332230;28;20325;-79
2023/09/12 14:40:54;;;;;;;8.77;2.80;;;;;;;;;;10312403;28;20049;-78
2023/09/12 14:45:55;;;;;;;8.02;3.15;;;;;;;;;;10308459;28;20014;-80
2023/09/12 14:50:55;;;;;;;5.63;2.40;;;;;;;;;;10318318;28;20056;-77
2023/09/12 14:55:58;;;;;;;6.10;2.57;;;;;;;;;;10310727;28;20483;-86
2023/09/12 15:00:59;;;;;;;7.07;2.88;;;;;;;;;;10302660;28;20041;-72
2023/09/12 15:05:59;;;;;;;6.68;2.42;;;;;;;;;;10299942;28;20019;-79
2023/09/12 15:10:59;;;;;;;11.98;2.80;;;;;;;;;;10316709;28;20084;-82
2023/09/12 15:16:05;;;;;;;10.13;2.40;;;;;;;;;;10316098;28;20399;-85
2023/09/12 15:21:05;;;;;;;16.52;3.80;;;;;;;;;;10322625;28;20026;-76
2023/09/12 15:26:05;;;;;;;10.70;2.88;;;;;;;;;;10309554;28;20309;-80
2023/09/12 15:31:11;;;;;;;13.30;2.65;;;;;;;;;;10312917;28;20069;-81
2023/09/12 15:36:13;;;;;;;;;;;;;;;;;;10315213;28;20077;-79
2023/09/12 15:41:15;;;;;;;8.05;2.60;;;;;;;;;;10336036;28;19918;-79
2023/09/12 15:46:15;;;;;;;10.65;3.53;;;;;;;;;;10304092;28;20033;-80
2023/09/12 15:51:17;;;;;;;5.97;2.58;;;;;;;;;;10304829;28;20450;-77
2023/09/12 15:56:18;;;;;;;6.70;3.30;;;;;;;;;;10301513;28;20441;-75
2023/09/12 16:01:18;;;;;;;7.90;2.90;;;;;;;;;;10300178;28;21066;-76
2023/09/12 16:06:18;;;;;;;7.38;3.30;;;;;;;;;;10303121;28;20029;-79
2023/09/12 16:11:19;;;;;;;12.98;3.25;;;;;;;;;;10300674;28;20023;-75
2023/09/12 16:16:20;;;;;;;11.60;3.58;;;;;;;;;;10304569;28;20027;-76
2023/09/12 16:21:24;;;;;;;13.85;3.30;;;;;;;;;;10301161;28;20484;-78
2023/09/12 16:26:25;;;;;;;9.52;4.35;;;;;;;;;;10291421;28;20034;-80
2023/09/12 16:31:25;;;;;;;12.50;4.37;;;;;;;;;;10308889;28;20057;-74
2023/09/12 16:36:26;;;;;;;3.80;2.90;;;;;;;;;;10309804;28;20575;-77
2023/09/12 16:41:26;;;;;;;7.00;3.60;;;;;;;;;;10311964;28;20391;-79
2023/09/12 16:46:26;;;;;;;8.27;3.13;;;;;;;;;;10306150;28;20026;-80
2023/09/12 16:51:27;;;;;;;7.43;3.45;;;;;;;;;;10330071;28;20046;-81
2023/09/12 16:56:30;;;;;;;7.38;3.33;;;;;;;;;;10325550;28;20129;-77
2023/09/12 17:01:32;;;;;;;9.32;2.90;;;;;;;;;;10312667;28;20126;-76
2023/09/12 17:06:32;;;;;;;7.97;2.80;;;;;;;;;;10310990;28;20528;-76
2023/09/12 17:11:32;;;;;;;9.75;3.53;;;;;;;;;;10315375;28;20080;-85
2023/09/12 17:16:34;;;;;;;14.20;4.03;;;;;;;;;;10323503;28;20069;-78
2023/09/12 17:21:37;;;;;;;5.25;3.15;;;;;;;;;;10329129;28;20019;-81
2023/09/12 17:26:39;;;;;;;8.90;3.15;;;;;;;;;;10307408;28;20414;-76
2023/09/12 17:31:44;;;;;;;5.07;2.95;;;;;;;;;;10311648;28;20034;-78
2023/09/12 17:36:47;;;;;;;6.95;3.00;;;;;;;;;;10314371;28;20683;-77
2023/09/12 17:41:47;;;;;;;7.50;3.00;;;;;;;;;;10326358;28;20121;-79
2023/09/12 17:46:49;;;;;;;6.30;2.90;;;;;;;;;;10341893;28;20076;-74
2023/09/12 17:51:50;;;;;;;10.90;3.13;;;;;;;;;;10317265;28;20073;-79
2023/09/12 17:56:50;;;;;;;7.78;3.55;;;;;;;;;;10318300;28;20038;-75
2023/09/12 18:01:52;;;;;;;10.73;3.70;;;;;;;;;;10315794;28;20050;-76
2023/09/12 18:06:53;;;;;;;7.78;3.63;;;;;;;;;;10322446;28;20375;-79
2023/09/12 18:11:54;;;;;;;11.52;3.70;;;;;;;;;;10307123;28;20019;-80
2023/09/12 18:16:55;;;;;;;5.95;3.50;;;;;;;;;;10305442;28;20026;-76
2023/09/12 18:21:58;;;;;;;7.03;2.70;;;;;;;;;;10326684;28;20018;-82
2023/09/12 18:26:58;;;;;;;10.40;4.03;;;;;;;;;;10307969;28;20113;-81
2023/09/12 18:31:58;;;;;;;5.55;3.85;;;;;;;;;;10301713;28;20053;-79
2023/09/12 18:37:00;;;;;;;8.13;3.33;;;;;;;;;;10314054;28;20060;-71
2023/09/12 18:42:00;;;;;;;13.65;3.50;;;;;;;;;;10318669;28;20072;-79
2023/09/12 18:47:01;;;;;;;5.10;3.40;;;;;;;;;;10313543;28;20042;-74
2023/09/12 18:52:02;;;;;;;6.32;3.45;;;;;;;;;;10306950;28;20054;-77
2023/09/12 18:57:13;;;;;;;8.20;3.30;;;;;;;;;;10309884;28;20046;-75
2023/09/12 19:02:14;;;;;;;9.90;4.20;;;;;;;;;;10317259;28;20280;-75
2023/09/12 19:07:16;;;;;;;6.18;3.10;;;;;;;;;;10319729;28;20479;-69
2023/09/12 19:12:17;;;;;;;6.90;3.58;;;;;;;;;;10348435;28;20018;-80
2023/09/12 19:17:17;;;;;;;6.57;3.35;;;;;;;;;;10315196;28;20026;-77
2023/09/12 19:22:18;;;;;;;8.70;3.50;;;;;;;;;;10310841;28;20486;-78
2023/09/12 19:27:18;;;;;;;7.70;4.60;;;;;;;;;;10302652;28;20034;-78
2023/09/12 19:32:18;;;;;;;5.35;3.15;;;;;;;;;;10317517;28;20030;-79
2023/09/12 19:37:19;;;;;;;6.90;2.60;;;;;;;;;;10313417;28;20116;-79
2023/09/12 19:42:20;;;;;;;7.28;3.47;;;;;;;;;;10308785;28;20034;-77
2023/09/12 19:47:20;;;;;;;6.32;2.88;;;;;;;;;;10321309;28;20026;-78
2023/09/12 19:52:24;;;;;;;6.45;3.17;;;;;;;;;;10297455;28;20054;-74
2023/09/12 19:57:25;;;;;;;7.57;3.85;;;;;;;;;;10297079;28;20030;-76
2023/09/12 20:02:29;;;;;;;16.33;2.95;;;;;;;;;;10297369;28;20022;-83
2023/09/12 20:07:30;;;;;;;6.65;2.83;;;;;;;;;;10307928;28;20037;-75
2023/09/12 20:12:30;;;;;;;7.25;3.47;;;;;;;;;;10303712;28;20022;-77
2023/09/12 20:17:30;;;;;;;8.40;2.90;;;;;;;;;;10297897;28;20341;-81
2023/09/12 20:22:31;;;;;;;13.75;3.80;;;;;;;;;;10311375;28;20105;-83
2023/09/12 20:27:31;;;;;;;8.37;3.63;;;;;;;;;;10312370;28;20026;-78
2023/09/12 20:32:31;;;;;;;5.75;3.30;;;;;;;;;;10314599;28;20034;-83
2023/09/12 20:37:32;;;;;;;5.35;3.50;;;;;;;;;;10312148;28;20086;-75
2023/09/12 20:42:32;;;;;;;5.70;2.90;;;;;;;;;;10306706;28;20387;-76
2023/09/12 20:47:32;;;;;;;5.93;2.90;;;;;;;;;;10315233;28;20285;-75
2023/09/12 20:52:35;;;;;;;6.25;2.90;;;;;;;;;;10313706;28;20058;-78
2023/09/12 20:57:54;;;;;;;7.57;2.83;;;;;;;;;;10330353;28;20026;-69
2023/09/12 21:02:54;;;;;;;7.47;2.95;;;;;;;;;;10333777;28;20031;-78
2023/09/12 21:07:56;;;;;;;7.97;3.70;;;;;;;;;;10309512;28;20041;-77
2023/09/12 21:12:56;;;;;;;5.47;2.97;;;;;;;;;;10323876;28;20431;-76
2023/09/12 21:17:57;;;;;;;5.43;4.45;;;;;;;;;;10311949;28;20041;-75
2023/09/12 21:23:04;;;;;;;7.88;3.55;;;;;;;;;;10320832;28;20224;-73
2023/09/12 21:28:04;;;;;;;6.22;3.17;;;;;;;;;;10323909;28;20128;-72
2023/09/12 21:33:05;;;;;;;7.85;3.22;;;;;;;;;;10312755;28;20040;-81
2023/09/12 21:38:05;;;;;;;5.90;2.72;;;;;;;;;;10331510;28;20027;-74
2023/09/12 21:43:12;;;;;;;4.18;2.80;;;;;;;;;;10314667;28;20589;-76
2023/09/12 21:48:13;;;;;;;5.70;2.80;;;;;;;;;;10314653;28;20403;-78
2023/09/12 21:53:14;;;;;;;6.88;3.20;;;;;;;;;;10308027;28;20057;-77
2023/09/12 21:58:14;;;;;;;8.13;3.30;;;;;;;;;;10325363;28;20031;-77
2023/09/12 22:03:18;;;;;;;9.13;2.83;;;;;;;;;;10312288;28;20470;-75
2023/09/12 22:08:19;;;;;;;5.53;2.80;;;;;;;;;;10311419;28;20023;-80
2023/09/12 22:13:27;;;;;;;5.70;2.95;;;;;;;;;;10312750;28;20341;-78
2023/09/12 22:18:31;;;;;;;3.80;3.00;;;;;;;;;;10312900;28;20018;-78
2023/09/12 22:23:32;;;;;;;5.93;3.40;;;;;;;;;;10326514;28;20541;-71
2023/09/12 22:28:32;;;;;;;4.38;3.20;;;;;;;;;;10311801;28;20149;-79
2023/09/12 22:33:32;;;;;;;10.00;3.70;;;;;;;;;;10307492;28;20034;-76
2023/09/12 22:38:33;;;;;;;6.47;3.13;;;;;;;;;;10312583;28;20031;-78
2023/09/12 22:43:36;;;;;;;4.75;3.28;;;;;;;;;;10316820;28;20022;-76
2023/09/12 22:48:37;;;;;;;5.53;4.03;;;;;;;;;;10310948;28;20034;-78
2023/09/12 22:53:37;;;;;;;10.03;3.50;;;;;;;;;;10310575;28;20050;-76
2023/09/12 22:58:38;;;;;;;11.55;4.28;;;;;;;;;;10309816;28;20034;-71
2023/09/12 23:03:38;;;;;;;6.72;4.18;;;;;;;;;;10328562;28;20495;-74
2023/09/12 23:08:39;;;;;;;10.55;4.15;;;;;;;;;;10306663;28;20076;-81
2023/09/12 23:13:39;;;;;;;8.65;3.38;;;;;;;;;;10309883;28;20041;-81
2023/09/12 23:18:49;;;;;;;11.10;3.80;;;;;;;;;;10324714;28;20018;-82
2023/09/12 23:23:52;;;;;;;4.60;3.42;;;;;;;;;;10305899;28;20470;-78
2023/09/12 23:28:56;;;;;;;7.68;4.13;;;;;;;;;;10302430;28;20034;-77
2023/09/12 23:33:56;;;;;;;5.43;3.67;;;;;;;;;;10305244;28;20049;-78
2023/09/12 23:38:57;;;;;;;11.55;4.25;;;;;;;;;;10326958;28;20032;-82
2023/09/12 23:44:00;;;;;;;6.35;3.55;;;;;;;;;;10306215;28;20040;-81
2023/09/12 23:49:04;;;;;;;11.93;4.13;;;;;;;;;;10311419;28;20046;-73
2023/09/12 23:54:07;;;;;;;8.20;3.20;;;;;;;;;;10307011;28;20050;-77
2023/09/12 23:59:09;;;;;;;9.77;3.88;;;;;;;;;;10334698;28;20039;-76
